sensor_id;sensor_type;location;lat;lon;timestamp;P1;durP1;ratioP1;P2;durP2;ratioP2
44720;SDS011;30450;52.534;13.398;2022-09-03T00:00:19;4.00;;;1.10;;
44720;SDS011;30450;52.534;13.398;2022-09-03T00:05:19;3.00;;;1.20;;
44720;SDS011;30450;52.534;13.398;2022-09-03T00:10:30;5.63;;;1.25;;
44720;SDS011;30450;52.534;13.398;2022-09-03T00:12:58;4.18;;;1.45;;
44720;SDS011;30450;52.534;13.398;2022-09-03T00:15:27;3.97;;;1.10;;
44720;SDS011;30450;52.534;13.398;2022-09-03T00:17:55;8.40;;;1.20;;
44720;SDS011;30450;52.534;13.398;2022-09-03T00:20:27;2.60;;;1.30;;
44720;SDS011;30450;52.534;13.398;2022-09-03T00:22:57;2.80;;;1.20;;
44720;SDS011;30450;52.534;13.398;2022-09-03T00:25:28;4.20;;;1.15;;
44720;SDS011;30450;52.534;13.398;2022-09-03T00:27:58;3.50;;;1.08;;
44720;SDS011;30450;52.534;13.398;2022-09-03T00:30:26;2.55;;;0.80;;
44720;SDS011;30450;52.534;13.398;2022-09-03T00:33:02;2.00;;;1.25;;
44720;SDS011;30450;52.534;13.398;2022-09-03T00:35:42;3.10;;;1.20;;
44720;SDS011;30450;52.534;13.398;2022-09-03T00:38:09;5.03;;;1.20;;
44720;SDS011;30450;52.534;13.398;2022-09-03T00:40:51;7.40;;;1.00;;
44720;SDS011;30450;52.534;13.398;2022-09-03T00:45:58;3.35;;;1.08;;
44720;SDS011;30450;52.534;13.398;2022-09-03T00:48:31;2.88;;;1.10;;
44720;SDS011;30450;52.534;13.398;2022-09-03T00:53:47;4.03;;;1.17;;
44720;SDS011;30450;52.534;13.398;2022-09-03T01:01:21;2.40;;;1.08;;
44720;SDS011;30450;52.534;13.398;2022-09-03T01:06:16;4.38;;;1.25;;
44720;SDS011;30450;52.534;13.398;2022-09-03T01:11:19;4.38;;;1.20;;
44720;SDS011;30450;52.534;13.398;2022-09-03T01:16:25;3.75;;;1.00;;
44720;SDS011;30450;52.534;13.398;2022-09-03T01:19:11;2.03;;;1.23;;
44720;SDS011;30450;52.534;13.398;2022-09-03T01:24:15;2.25;;;1.25;;
44720;SDS011;30450;52.534;13.398;2022-09-03T01:29:37;6.15;;;1.63;;
44720;SDS011;30450;52.534;13.398;2022-09-03T01:32:12;2.50;;;1.30;;
44720;SDS011;30450;52.534;13.398;2022-09-03T01:34:42;1.05;;;0.90;;
44720;SDS011;30450;52.534;13.398;2022-09-03T01:42:46;2.10;;;1.20;;
44720;SDS011;30450;52.534;13.398;2022-09-03T01:45:18;5.20;;;1.17;;
44720;SDS011;30450;52.534;13.398;2022-09-03T01:50:31;3.70;;;1.20;;
44720;SDS011;30450;52.534;13.398;2022-09-03T01:55:30;3.20;;;1.10;;
44720;SDS011;30450;52.534;13.398;2022-09-03T01:57:57;3.03;;;1.42;;
44720;SDS011;30450;52.534;13.398;2022-09-03T02:00:25;1.80;;;1.20;;
44720;SDS011;30450;52.534;13.398;2022-09-03T02:02:52;4.73;;;1.20;;
44720;SDS011;30450;52.534;13.398;2022-09-03T02:05:19;3.08;;;1.30;;
44720;SDS011;30450;52.534;13.398;2022-09-03T02:07:50;5.10;;;1.33;;
44720;SDS011;30450;52.534;13.398;2022-09-03T02:10:19;2.92;;;1.10;;
44720;SDS011;30450;52.534;13.398;2022-09-03T02:12:47;2.22;;;1.48;;
44720;SDS011;30450;52.534;13.398;2022-09-03T02:17:39;2.45;;;1.30;;
44720;SDS011;30450;52.534;13.398;2022-09-03T02:20:07;1.95;;;1.38;;
44720;SDS011;30450;52.534;13.398;2022-09-03T02:22:36;1.85;;;1.20;;
44720;SDS011;30450;52.534;13.398;2022-09-03T02:25:03;2.10;;;1.20;;
44720;SDS011;30450;52.534;13.398;2022-09-03T02:27:29;1.92;;;1.10;;
44720;SDS011;30450;52.534;13.398;2022-09-03T02:29:56;1.63;;;1.08;;
44720;SDS011;30450;52.534;13.398;2022-09-03T02:32:21;5.20;;;1.33;;
44720;SDS011;30450;52.534;13.398;2022-09-03T02:34:47;4.38;;;1.30;;
44720;SDS011;30450;52.534;13.398;2022-09-03T02:37:13;3.38;;;1.20;;
44720;SDS011;30450;52.534;13.398;2022-09-03T02:39:39;1.75;;;1.23;;
44720;SDS011;30450;52.534;13.398;2022-09-03T02:42:06;3.08;;;1.67;;
44720;SDS011;30450;52.534;13.398;2022-09-03T02:44:34;4.55;;;1.27;;
44720;SDS011;30450;52.534;13.398;2022-09-03T02:47:03;3.42;;;1.35;;
44720;SDS011;30450;52.534;13.398;2022-09-03T02:49:29;7.05;;;1.20;;
44720;SDS011;30450;52.534;13.398;2022-09-03T02:51:59;7.80;;;1.55;;
44720;SDS011;30450;52.534;13.398;2022-09-03T02:54:26;2.10;;;1.60;;
44720;SDS011;30450;52.534;13.398;2022-09-03T02:56:52;4.72;;;1.20;;
44720;SDS011;30450;52.534;13.398;2022-09-03T02:59:18;2.70;;;1.30;;
44720;SDS011;30450;52.534;13.398;2022-09-03T03:01:44;1.77;;;1.20;;
44720;SDS011;30450;52.534;13.398;2022-09-03T03:04:10;2.03;;;0.98;;
44720;SDS011;30450;52.534;13.398;2022-09-03T03:06:35;5.75;;;1.50;;
44720;SDS011;30450;52.534;13.398;2022-09-03T03:09:01;2.60;;;1.30;;
44720;SDS011;30450;52.534;13.398;2022-09-03T03:11:28;6.25;;;1.08;;
44720;SDS011;30450;52.534;13.398;2022-09-03T03:13:55;1.83;;;1.20;;
44720;SDS011;30450;52.534;13.398;2022-09-03T03:16:20;2.63;;;1.40;;
44720;SDS011;30450;52.534;13.398;2022-09-03T03:18:46;2.30;;;1.35;;
44720;SDS011;30450;52.534;13.398;2022-09-03T03:21:13;3.47;;;1.60;;
44720;SDS011;30450;52.534;13.398;2022-09-03T03:23:39;4.03;;;1.35;;
44720;SDS011;30450;52.534;13.398;2022-09-03T03:26:07;4.07;;;1.17;;
44720;SDS011;30450;52.534;13.398;2022-09-03T03:28:33;2.83;;;1.00;;
44720;SDS011;30450;52.534;13.398;2022-09-03T03:31:10;5.75;;;1.50;;
44720;SDS011;30450;52.534;13.398;2022-09-03T03:33:36;1.73;;;1.20;;
44720;SDS011;30450;52.534;13.398;2022-09-03T03:38:31;2.63;;;1.30;;
44720;SDS011;30450;52.534;13.398;2022-09-03T03:40:57;4.20;;;1.50;;
44720;SDS011;30450;52.534;13.398;2022-09-03T03:43:22;4.57;;;1.30;;
44720;SDS011;30450;52.534;13.398;2022-09-03T03:45:55;1.65;;;1.30;;
44720;SDS011;30450;52.534;13.398;2022-09-03T03:48:21;2.53;;;1.35;;
44720;SDS011;30450;52.534;13.398;2022-09-03T03:50:47;1.92;;;1.10;;
44720;SDS011;30450;52.534;13.398;2022-09-03T03:53:13;8.30;;;1.38;;
44720;SDS011;30450;52.534;13.398;2022-09-03T03:55:39;4.85;;;1.15;;
44720;SDS011;30450;52.534;13.398;2022-09-03T03:58:05;2.90;;;1.10;;
44720;SDS011;30450;52.534;13.398;2022-09-03T04:00:30;3.95;;;1.50;;
44720;SDS011;30450;52.534;13.398;2022-09-03T04:02:57;2.72;;;1.25;;
44720;SDS011;30450;52.534;13.398;2022-09-03T04:05:23;4.20;;;1.63;;
44720;SDS011;30450;52.534;13.398;2022-09-03T04:07:49;3.03;;;1.40;;
44720;SDS011;30450;52.534;13.398;2022-09-03T04:10:15;2.50;;;0.98;;
44720;SDS011;30450;52.534;13.398;2022-09-03T04:12:40;2.65;;;1.48;;
44720;SDS011;30450;52.534;13.398;2022-09-03T04:15:06;3.53;;;1.50;;
44720;SDS011;30450;52.534;13.398;2022-09-03T04:17:32;2.97;;;1.55;;
44720;SDS011;30450;52.534;13.398;2022-09-03T04:19:58;4.30;;;1.70;;
44720;SDS011;30450;52.534;13.398;2022-09-03T04:22:24;1.77;;;1.40;;
44720;SDS011;30450;52.534;13.398;2022-09-03T04:24:49;3.10;;;1.52;;
44720;SDS011;30450;52.534;13.398;2022-09-03T04:27:15;4.63;;;1.38;;
44720;SDS011;30450;52.534;13.398;2022-09-03T04:29:41;3.65;;;1.30;;
44720;SDS011;30450;52.534;13.398;2022-09-03T04:32:06;1.80;;;1.30;;
44720;SDS011;30450;52.534;13.398;2022-09-03T04:34:51;6.90;;;1.20;;
44720;SDS011;30450;52.534;13.398;2022-09-03T04:37:17;6.32;;;1.98;;
44720;SDS011;30450;52.534;13.398;2022-09-03T04:39:44;4.55;;;1.48;;
44720;SDS011;30450;52.534;13.398;2022-09-03T04:42:10;1.75;;;1.35;;
44720;SDS011;30450;52.534;13.398;2022-09-03T04:44:36;3.22;;;1.33;;
44720;SDS011;30450;52.534;13.398;2022-09-03T04:47:03;2.47;;;1.73;;
44720;SDS011;30450;52.534;13.398;2022-09-03T04:49:29;2.00;;;1.40;;
44720;SDS011;30450;52.534;13.398;2022-09-03T04:51:55;1.90;;;1.13;;
44720;SDS011;30450;52.534;13.398;2022-09-03T04:54:21;7.43;;;2.00;;
44720;SDS011;30450;52.534;13.398;2022-09-03T04:56:47;5.32;;;1.50;;
44720;SDS011;30450;52.534;13.398;2022-09-03T04:59:12;3.33;;;1.30;;
44720;SDS011;30450;52.534;13.398;2022-09-03T05:01:38;5.30;;;1.40;;
44720;SDS011;30450;52.534;13.398;2022-09-03T05:04:05;5.57;;;2.08;;
44720;SDS011;30450;52.534;13.398;2022-09-03T05:06:31;2.35;;;1.40;;
44720;SDS011;30450;52.534;13.398;2022-09-03T05:08:58;2.92;;;1.60;;
44720;SDS011;30450;52.534;13.398;2022-09-03T05:11:24;24.67;;;2.15;;
44720;SDS011;30450;52.534;13.398;2022-09-03T05:13:51;4.53;;;1.80;;
44720;SDS011;30450;52.534;13.398;2022-09-03T05:16:17;2.90;;;1.42;;
44720;SDS011;30450;52.534;13.398;2022-09-03T05:18:43;1.63;;;1.50;;
44720;SDS011;30450;52.534;13.398;2022-09-03T05:21:11;3.63;;;1.70;;
44720;SDS011;30450;52.534;13.398;2022-09-03T05:23:38;3.43;;;2.10;;
44720;SDS011;30450;52.534;13.398;2022-09-03T05:26:05;2.90;;;1.45;;
44720;SDS011;30450;52.534;13.398;2022-09-03T05:28:35;5.60;;;1.77;;
44720;SDS011;30450;52.534;13.398;2022-09-03T05:31:01;3.33;;;1.70;;
44720;SDS011;30450;52.534;13.398;2022-09-03T05:33:28;3.35;;;2.00;;
44720;SDS011;30450;52.534;13.398;2022-09-03T05:35:59;4.45;;;1.48;;
44720;SDS011;30450;52.534;13.398;2022-09-03T05:38:25;3.78;;;2.03;;
44720;SDS011;30450;52.534;13.398;2022-09-03T05:40:51;4.47;;;1.60;;
44720;SDS011;30450;52.534;13.398;2022-09-03T05:43:17;4.78;;;1.88;;
44720;SDS011;30450;52.534;13.398;2022-09-03T05:45:43;3.75;;;1.92;;
44720;SDS011;30450;52.534;13.398;2022-09-03T05:48:09;4.47;;;1.77;;
44720;SDS011;30450;52.534;13.398;2022-09-03T05:50:34;4.90;;;1.90;;
44720;SDS011;30450;52.534;13.398;2022-09-03T05:53:01;1.48;;;1.25;;
44720;SDS011;30450;52.534;13.398;2022-09-03T05:55:27;2.70;;;1.60;;
44720;SDS011;30450;52.534;13.398;2022-09-03T05:57:53;2.83;;;1.48;;
44720;SDS011;30450;52.534;13.398;2022-09-03T06:00:19;4.28;;;1.83;;
44720;SDS011;30450;52.534;13.398;2022-09-03T06:02:51;4.43;;;1.45;;
44720;SDS011;30450;52.534;13.398;2022-09-03T06:05:17;4.85;;;2.03;;
44720;SDS011;30450;52.534;13.398;2022-09-03T06:07:43;4.07;;;1.65;;
44720;SDS011;30450;52.534;13.398;2022-09-03T06:10:09;6.50;;;1.80;;
44720;SDS011;30450;52.534;13.398;2022-09-03T06:12:37;3.63;;;2.20;;
44720;SDS011;30450;52.534;13.398;2022-09-03T06:15:03;6.50;;;1.67;;
44720;SDS011;30450;52.534;13.398;2022-09-03T06:17:30;3.53;;;1.67;;
44720;SDS011;30450;52.534;13.398;2022-09-03T06:19:56;3.10;;;1.58;;
44720;SDS011;30450;52.534;13.398;2022-09-03T06:22:21;4.13;;;2.10;;
44720;SDS011;30450;52.534;13.398;2022-09-03T06:27:15;2.40;;;1.73;;
44720;SDS011;30450;52.534;13.398;2022-09-03T06:29:41;2.47;;;1.83;;
44720;SDS011;30450;52.534;13.398;2022-09-03T06:32:06;2.63;;;1.80;;
44720;SDS011;30450;52.534;13.398;2022-09-03T06:34:32;3.47;;;1.90;;
44720;SDS011;30450;52.534;13.398;2022-09-03T06:36:58;2.25;;;1.80;;
44720;SDS011;30450;52.534;13.398;2022-09-03T06:39:24;2.50;;;1.70;;
44720;SDS011;30450;52.534;13.398;2022-09-03T06:41:51;2.55;;;1.70;;
44720;SDS011;30450;52.534;13.398;2022-09-03T06:44:17;4.75;;;2.33;;
44720;SDS011;30450;52.534;13.398;2022-09-03T06:46:43;7.70;;;1.88;;
44720;SDS011;30450;52.534;13.398;2022-09-03T06:49:09;3.72;;;1.70;;
44720;SDS011;30450;52.534;13.398;2022-09-03T06:51:35;5.90;;;1.80;;
44720;SDS011;30450;52.534;13.398;2022-09-03T06:54:03;4.03;;;2.20;;
44720;SDS011;30450;52.534;13.398;2022-09-03T06:56:29;3.28;;;1.70;;
44720;SDS011;30450;52.534;13.398;2022-09-03T06:58:56;9.52;;;1.90;;
44720;SDS011;30450;52.534;13.398;2022-09-03T07:01:23;2.83;;;1.35;;
44720;SDS011;30450;52.534;13.398;2022-09-03T07:03:54;4.68;;;2.47;;
44720;SDS011;30450;52.534;13.398;2022-09-03T07:06:21;2.85;;;1.92;;
44720;SDS011;30450;52.534;13.398;2022-09-03T07:08:47;6.47;;;1.95;;
44720;SDS011;30450;52.534;13.398;2022-09-03T07:11:14;6.43;;;1.83;;
44720;SDS011;30450;52.534;13.398;2022-09-03T07:13:41;3.58;;;2.15;;
44720;SDS011;30450;52.534;13.398;2022-09-03T07:16:09;5.70;;;1.85;;
44720;SDS011;30450;52.534;13.398;2022-09-03T07:18:35;2.63;;;1.70;;
44720;SDS011;30450;52.534;13.398;2022-09-03T07:21:05;6.50;;;2.25;;
44720;SDS011;30450;52.534;13.398;2022-09-03T07:23:31;4.97;;;1.73;;
44720;SDS011;30450;52.534;13.398;2022-09-03T07:25:58;4.95;;;1.88;;
44720;SDS011;30450;52.534;13.398;2022-09-03T07:28:25;2.88;;;1.73;;
44720;SDS011;30450;52.534;13.398;2022-09-03T07:30:51;3.47;;;1.90;;
44720;SDS011;30450;52.534;13.398;2022-09-03T07:33:17;3.28;;;1.40;;
44720;SDS011;30450;52.534;13.398;2022-09-03T07:35:44;3.47;;;1.85;;
44720;SDS011;30450;52.534;13.398;2022-09-03T07:38:10;3.97;;;1.45;;
44720;SDS011;30450;52.534;13.398;2022-09-03T07:40:36;2.65;;;1.50;;
44720;SDS011;30450;52.534;13.398;2022-09-03T07:43:04;2.70;;;1.65;;
44720;SDS011;30450;52.534;13.398;2022-09-03T07:45:31;3.63;;;1.70;;
44720;SDS011;30450;52.534;13.398;2022-09-03T07:47:58;3.78;;;1.80;;
44720;SDS011;30450;52.534;13.398;2022-09-03T07:50:24;2.85;;;1.98;;
44720;SDS011;30450;52.534;13.398;2022-09-03T07:52:56;7.28;;;2.10;;
44720;SDS011;30450;52.534;13.398;2022-09-03T07:55:25;2.95;;;1.83;;
44720;SDS011;30450;52.534;13.398;2022-09-03T07:57:55;6.82;;;2.25;;
44720;SDS011;30450;52.534;13.398;2022-09-03T08:00:21;2.75;;;1.38;;
44720;SDS011;30450;52.534;13.398;2022-09-03T08:02:47;3.80;;;1.45;;
44720;SDS011;30450;52.534;13.398;2022-09-03T08:05:13;6.80;;;1.70;;
44720;SDS011;30450;52.534;13.398;2022-09-03T08:07:39;6.53;;;1.75;;
44720;SDS011;30450;52.534;13.398;2022-09-03T08:10:05;3.92;;;1.58;;
44720;SDS011;30450;52.534;13.398;2022-09-03T08:12:30;6.35;;;1.60;;
44720;SDS011;30450;52.534;13.398;2022-09-03T08:14:57;3.35;;;1.80;;
44720;SDS011;30450;52.534;13.398;2022-09-03T08:17:23;4.50;;;1.73;;
44720;SDS011;30450;52.534;13.398;2022-09-03T08:19:49;3.75;;;1.73;;
44720;SDS011;30450;52.534;13.398;2022-09-03T08:22:15;2.22;;;1.52;;
44720;SDS011;30450;52.534;13.398;2022-09-03T08:24:41;5.43;;;1.95;;
44720;SDS011;30450;52.534;13.398;2022-09-03T08:27:07;1.52;;;1.42;;
44720;SDS011;30450;52.534;13.398;2022-09-03T08:29:33;5.75;;;1.60;;
44720;SDS011;30450;52.534;13.398;2022-09-03T08:31:59;2.38;;;1.60;;
44720;SDS011;30450;52.534;13.398;2022-09-03T08:34:24;3.58;;;1.75;;
44720;SDS011;30450;52.534;13.398;2022-09-03T08:36:50;4.75;;;2.00;;
44720;SDS011;30450;52.534;13.398;2022-09-03T08:39:17;4.05;;;2.55;;
44720;SDS011;30450;52.534;13.398;2022-09-03T08:44:28;4.43;;;1.90;;
44720;SDS011;30450;52.534;13.398;2022-09-03T08:47:04;3.35;;;2.05;;
44720;SDS011;30450;52.534;13.398;2022-09-03T08:49:33;8.25;;;2.15;;
44720;SDS011;30450;52.534;13.398;2022-09-03T08:52:04;7.03;;;2.58;;
44720;SDS011;30450;52.534;13.398;2022-09-03T08:54:31;3.38;;;1.83;;
44720;SDS011;30450;52.534;13.398;2022-09-03T08:56:59;3.17;;;2.03;;
44720;SDS011;30450;52.534;13.398;2022-09-03T08:59:25;2.65;;;1.70;;
44720;SDS011;30450;52.534;13.398;2022-09-03T09:01:54;4.93;;;2.10;;
44720;SDS011;30450;52.534;13.398;2022-09-03T09:04:23;8.57;;;1.92;;
44720;SDS011;30450;52.534;13.398;2022-09-03T09:06:52;4.55;;;1.70;;
44720;SDS011;30450;52.534;13.398;2022-09-03T09:09:27;5.63;;;2.65;;
44720;SDS011;30450;52.534;13.398;2022-09-03T09:12:40;2.15;;;1.77;;
44720;SDS011;30450;52.534;13.398;2022-09-03T09:22:29;7.15;;;2.22;;
44720;SDS011;30450;52.534;13.398;2022-09-03T09:24:57;2.50;;;1.65;;
44720;SDS011;30450;52.534;13.398;2022-09-03T09:29:49;7.07;;;2.97;;
44720;SDS011;30450;52.534;13.398;2022-09-03T09:32:15;7.45;;;3.08;;
44720;SDS011;30450;52.534;13.398;2022-09-03T09:34:42;6.75;;;2.33;;
44720;SDS011;30450;52.534;13.398;2022-09-03T09:37:12;11.80;;;2.53;;
44720;SDS011;30450;52.534;13.398;2022-09-03T09:39:38;4.75;;;2.00;;
44720;SDS011;30450;52.534;13.398;2022-09-03T09:42:05;5.20;;;2.03;;
44720;SDS011;30450;52.534;13.398;2022-09-03T09:44:37;2.55;;;1.77;;
44720;SDS011;30450;52.534;13.398;2022-09-03T09:47:05;4.78;;;2.15;;
44720;SDS011;30450;52.534;13.398;2022-09-03T09:49:36;1.98;;;1.73;;
44720;SDS011;30450;52.534;13.398;2022-09-03T09:54:28;4.80;;;1.70;;
44720;SDS011;30450;52.534;13.398;2022-09-03T09:57:01;6.43;;;2.20;;
44720;SDS011;30450;52.534;13.398;2022-09-03T09:59:28;2.75;;;1.73;;
44720;SDS011;30450;52.534;13.398;2022-09-03T10:02:03;2.00;;;1.80;;
44720;SDS011;30450;52.534;13.398;2022-09-03T10:04:31;4.57;;;1.83;;
44720;SDS011;30450;52.534;13.398;2022-09-03T10:07:05;5.60;;;2.05;;
44720;SDS011;30450;52.534;13.398;2022-09-03T10:09:43;4.23;;;1.60;;
44720;SDS011;30450;52.534;13.398;2022-09-03T10:12:13;4.65;;;2.10;;
44720;SDS011;30450;52.534;13.398;2022-09-03T10:17:42;1.73;;;1.55;;
44720;SDS011;30450;52.534;13.398;2022-09-03T10:20:11;7.93;;;1.80;;
44720;SDS011;30450;52.534;13.398;2022-09-03T10:22:56;6.73;;;1.90;;
44720;SDS011;30450;52.534;13.398;2022-09-03T10:25:25;2.55;;;1.85;;
44720;SDS011;30450;52.534;13.398;2022-09-03T10:30:18;2.03;;;1.55;;
44720;SDS011;30450;52.534;13.398;2022-09-03T10:33:00;1.98;;;1.60;;
44720;SDS011;30450;52.534;13.398;2022-09-03T10:35:30;2.92;;;2.03;;
44720;SDS011;30450;52.534;13.398;2022-09-03T10:40:33;1.58;;;1.33;;
44720;SDS011;30450;52.534;13.398;2022-09-03T10:43:13;5.03;;;1.60;;
44720;SDS011;30450;52.534;13.398;2022-09-03T10:45:48;2.22;;;1.60;;
44720;SDS011;30450;52.534;13.398;2022-09-03T10:51:09;3.22;;;1.70;;
44720;SDS011;30450;52.534;13.398;2022-09-03T10:56:22;7.32;;;1.83;;
44720;SDS011;30450;52.534;13.398;2022-09-03T11:06:28;6.60;;;2.10;;
44720;SDS011;30450;52.534;13.398;2022-09-03T11:09:28;6.37;;;1.50;;
44720;SDS011;30450;52.534;13.398;2022-09-03T11:14:37;2.33;;;1.42;;
44720;SDS011;30450;52.534;13.398;2022-09-03T11:17:07;2.78;;;1.90;;
44720;SDS011;30450;52.534;13.398;2022-09-03T11:19:42;1.98;;;1.67;;
44720;SDS011;30450;52.534;13.398;2022-09-03T11:22:12;3.25;;;1.58;;
44720;SDS011;30450;52.534;13.398;2022-09-03T11:24:40;3.67;;;2.20;;
44720;SDS011;30450;52.534;13.398;2022-09-03T11:27:15;1.80;;;1.70;;
44720;SDS011;30450;52.534;13.398;2022-09-03T11:29:47;6.45;;;1.92;;
44720;SDS011;30450;52.534;13.398;2022-09-03T11:32:59;3.55;;;1.88;;
44720;SDS011;30450;52.534;13.398;2022-09-03T11:35:12;3.92;;;1.73;;
44720;SDS011;30450;52.534;13.398;2022-09-03T11:37:45;2.90;;;1.48;;
44720;SDS011;30450;52.534;13.398;2022-09-03T11:40:14;5.47;;;1.75;;
44720;SDS011;30450;52.534;13.398;2022-09-03T11:42:45;7.20;;;2.85;;
44720;SDS011;30450;52.534;13.398;2022-09-03T11:45:12;3.45;;;2.15;;
44720;SDS011;30450;52.534;13.398;2022-09-03T11:47:42;5.78;;;2.20;;
44720;SDS011;30450;52.534;13.398;2022-09-03T11:50:30;3.80;;;1.88;;
44720;SDS011;30450;52.534;13.398;2022-09-03T11:53:06;1.90;;;1.52;;
44720;SDS011;30450;52.534;13.398;2022-09-03T11:55:32;2.75;;;1.60;;
44720;SDS011;30450;52.534;13.398;2022-09-03T11:58:09;5.68;;;2.00;;
44720;SDS011;30450;52.534;13.398;2022-09-03T12:00:35;4.85;;;1.80;;
44720;SDS011;30450;52.534;13.398;2022-09-03T12:03:03;2.08;;;1.58;;
44720;SDS011;30450;52.534;13.398;2022-09-03T12:10:54;5.10;;;1.60;;
44720;SDS011;30450;52.534;13.398;2022-09-03T12:18:34;3.90;;;1.73;;
44720;SDS011;30450;52.534;13.398;2022-09-03T12:21:02;6.20;;;1.40;;
44720;SDS011;30450;52.534;13.398;2022-09-03T12:25:59;4.40;;;1.50;;
44720;SDS011;30450;52.534;13.398;2022-09-03T12:28:25;7.55;;;1.60;;
44720;SDS011;30450;52.534;13.398;2022-09-03T12:31:04;2.33;;;1.80;;
44720;SDS011;30450;52.534;13.398;2022-09-03T12:33:30;4.53;;;1.50;;
44720;SDS011;30450;52.534;13.398;2022-09-03T12:35:57;2.50;;;1.35;;
44720;SDS011;30450;52.534;13.398;2022-09-03T12:38:24;2.90;;;1.60;;
44720;SDS011;30450;52.534;13.398;2022-09-03T12:40:50;2.75;;;1.55;;
44720;SDS011;30450;52.534;13.398;2022-09-03T12:43:17;1.85;;;1.50;;
44720;SDS011;30450;52.534;13.398;2022-09-03T12:45:43;1.95;;;1.30;;
44720;SDS011;30450;52.534;13.398;2022-09-03T12:48:13;3.38;;;1.40;;
44720;SDS011;30450;52.534;13.398;2022-09-03T12:50:40;2.08;;;1.73;;
44720;SDS011;30450;52.534;13.398;2022-09-03T12:53:06;3.38;;;1.70;;
44720;SDS011;30450;52.534;13.398;2022-09-03T13:00:32;4.88;;;1.75;;
44720;SDS011;30450;52.534;13.398;2022-09-03T13:03:00;6.25;;;1.75;;
44720;SDS011;30450;52.534;13.398;2022-09-03T13:05:34;5.97;;;2.08;;
44720;SDS011;30450;52.534;13.398;2022-09-03T13:08:01;3.15;;;1.55;;
44720;SDS011;30450;52.534;13.398;2022-09-03T13:10:39;4.53;;;1.48;;
44720;SDS011;30450;52.534;13.398;2022-09-03T13:13:27;3.15;;;1.50;;
44720;SDS011;30450;52.534;13.398;2022-09-03T13:16:04;5.70;;;1.70;;
44720;SDS011;30450;52.534;13.398;2022-09-03T13:18:40;2.72;;;1.33;;
44720;SDS011;30450;52.534;13.398;2022-09-03T13:23:41;5.07;;;1.33;;
44720;SDS011;30450;52.534;13.398;2022-09-03T13:31:36;4.63;;;1.40;;
44720;SDS011;30450;52.534;13.398;2022-09-03T13:34:06;4.57;;;1.70;;
44720;SDS011;30450;52.534;13.398;2022-09-03T13:36:45;5.82;;;1.55;;
44720;SDS011;30450;52.534;13.398;2022-09-03T13:41:53;2.42;;;1.80;;
44720;SDS011;30450;52.534;13.398;2022-09-03T13:47:42;6.90;;;1.55;;
44720;SDS011;30450;52.534;13.398;2022-09-03T13:53:00;5.45;;;1.67;;
44720;SDS011;30450;52.534;13.398;2022-09-03T13:55:35;3.28;;;1.58;;
44720;SDS011;30450;52.534;13.398;2022-09-03T13:58:07;2.15;;;1.38;;
44720;SDS011;30450;52.534;13.398;2022-09-03T14:03:24;6.93;;;1.30;;
44720;SDS011;30450;52.534;13.398;2022-09-03T14:10:53;1.25;;;1.15;;
44720;SDS011;30450;52.534;13.398;2022-09-03T14:13:27;7.47;;;1.45;;
44720;SDS011;30450;52.534;13.398;2022-09-03T14:21:10;3.08;;;1.30;;
44720;SDS011;30450;52.534;13.398;2022-09-03T14:26:34;1.77;;;1.33;;
44720;SDS011;30450;52.534;13.398;2022-09-03T14:29:02;2.28;;;1.60;;
44720;SDS011;30450;52.534;13.398;2022-09-03T14:31:47;2.22;;;1.55;;
44720;SDS011;30450;52.534;13.398;2022-09-03T14:34:22;5.15;;;1.60;;
44720;SDS011;30450;52.534;13.398;2022-09-03T14:37:16;2.65;;;1.40;;
44720;SDS011;30450;52.534;13.398;2022-09-03T14:40:24;1.45;;;1.27;;
44720;SDS011;30450;52.534;13.398;2022-09-03T14:52:37;3.63;;;1.20;;
44720;SDS011;30450;52.534;13.398;2022-09-03T15:12:39;3.05;;;1.77;;
44720;SDS011;30450;52.534;13.398;2022-09-03T15:17:46;3.60;;;1.77;;
44720;SDS011;30450;52.534;13.398;2022-09-03T15:30:15;15.65;;;10.27;;
44720;SDS011;30450;52.534;13.398;2022-09-03T15:37:54;2.63;;;1.90;;
44720;SDS011;30450;52.534;13.398;2022-09-03T15:40:55;2.85;;;1.95;;
44720;SDS011;30450;52.534;13.398;2022-09-03T15:43:18;6.30;;;1.90;;
44720;SDS011;30450;52.534;13.398;2022-09-03T15:53:32;2.95;;;1.60;;
44720;SDS011;30450;52.534;13.398;2022-09-03T15:56:10;11.15;;;6.05;;
44720;SDS011;30450;52.534;13.398;2022-09-03T15:58:44;13.35;;;10.60;;
44720;SDS011;30450;52.534;13.398;2022-09-03T16:01:25;37.20;;;27.48;;
44720;SDS011;30450;52.534;13.398;2022-09-03T16:06:26;16.95;;;11.07;;
44720;SDS011;30450;52.534;13.398;2022-09-03T16:12:03;11.45;;;6.30;;
44720;SDS011;30450;52.534;13.398;2022-09-03T16:14:38;7.75;;;3.83;;
44720;SDS011;30450;52.534;13.398;2022-09-03T16:17:08;7.25;;;3.97;;
44720;SDS011;30450;52.534;13.398;2022-09-03T16:22:16;3.92;;;3.15;;
44720;SDS011;30450;52.534;13.398;2022-09-03T16:24:49;4.97;;;2.15;;
44720;SDS011;30450;52.534;13.398;2022-09-03T16:27:22;3.60;;;2.13;;
44720;SDS011;30450;52.534;13.398;2022-09-03T16:30:02;4.15;;;1.80;;
44720;SDS011;30450;52.534;13.398;2022-09-03T16:35:02;7.28;;;1.80;;
44720;SDS011;30450;52.534;13.398;2022-09-03T16:42:36;4.13;;;2.20;;
44720;SDS011;30450;52.534;13.398;2022-09-03T17:03:19;4.07;;;2.25;;
44720;SDS011;30450;52.534;13.398;2022-09-03T17:13:38;5.03;;;1.83;;
44720;SDS011;30450;52.534;13.398;2022-09-03T17:16:23;4.97;;;2.47;;
44720;SDS011;30450;52.534;13.398;2022-09-03T17:21:42;7.28;;;2.55;;
44720;SDS011;30450;52.534;13.398;2022-09-03T17:26:52;7.25;;;2.28;;
44720;SDS011;30450;52.534;13.398;2022-09-03T17:40:21;4.32;;;2.58;;
44720;SDS011;30450;52.534;13.398;2022-09-03T17:42:55;5.90;;;2.00;;
44720;SDS011;30450;52.534;13.398;2022-09-03T17:56:38;5.90;;;2.72;;
44720;SDS011;30450;52.534;13.398;2022-09-03T17:59:14;3.00;;;2.38;;
44720;SDS011;30450;52.534;13.398;2022-09-03T18:01:49;7.07;;;3.65;;
44720;SDS011;30450;52.534;13.398;2022-09-03T18:04:26;6.72;;;2.92;;
44720;SDS011;30450;52.534;13.398;2022-09-03T18:07:17;4.53;;;3.17;;
44720;SDS011;30450;52.534;13.398;2022-09-03T18:09:59;4.80;;;3.67;;
44720;SDS011;30450;52.534;13.398;2022-09-03T18:20:19;6.38;;;2.88;;
44720;SDS011;30450;52.534;13.398;2022-09-03T18:23:05;6.93;;;2.83;;
44720;SDS011;30450;52.534;13.398;2022-09-03T18:25:53;4.93;;;2.55;;
44720;SDS011;30450;52.534;13.398;2022-09-03T18:28:39;9.05;;;2.42;;
44720;SDS011;30450;52.534;13.398;2022-09-03T18:31:25;6.30;;;2.70;;
44720;SDS011;30450;52.534;13.398;2022-09-03T18:34:10;5.93;;;2.58;;
44720;SDS011;30450;52.534;13.398;2022-09-03T18:36:57;4.05;;;2.47;;
44720;SDS011;30450;52.534;13.398;2022-09-03T18:42:32;4.53;;;2.60;;
44720;SDS011;30450;52.534;13.398;2022-09-03T18:45:37;6.72;;;2.90;;
44720;SDS011;30450;52.534;13.398;2022-09-03T18:48:27;3.70;;;2.20;;
44720;SDS011;30450;52.534;13.398;2022-09-03T18:54:11;5.07;;;2.40;;
44720;SDS011;30450;52.534;13.398;2022-09-03T18:57:00;5.05;;;2.65;;
44720;SDS011;30450;52.534;13.398;2022-09-03T19:02:52;7.95;;;2.60;;
44720;SDS011;30450;52.534;13.398;2022-09-03T19:08:31;3.63;;;2.50;;
44720;SDS011;30450;52.534;13.398;2022-09-03T19:14:06;7.20;;;2.72;;
44720;SDS011;30450;52.534;13.398;2022-09-03T19:19:46;4.63;;;2.85;;
44720;SDS011;30450;52.534;13.398;2022-09-03T19:22:35;11.55;;;2.85;;
44720;SDS011;30450;52.534;13.398;2022-09-03T19:25:19;5.70;;;3.28;;
44720;SDS011;30450;52.534;13.398;2022-09-03T19:28:14;7.55;;;2.88;;
44720;SDS011;30450;52.534;13.398;2022-09-03T19:39:48;5.85;;;3.15;;
44720;SDS011;30450;52.534;13.398;2022-09-03T19:50:59;5.97;;;2.72;;
44720;SDS011;30450;52.534;13.398;2022-09-03T19:53:46;5.20;;;2.95;;